createdAt,value
2016-09-13T00:00:25.703Z,17.05
2016-09-13T00:01:17.732Z,17.04
2016-09-13T00:02:25.084Z,17.04
2016-09-13T00:03:26.392Z,16.97
2016-09-13T00:04:28.409Z,16.95
2016-09-13T00:05:26.685Z,16.95
2016-09-13T00:06:16.742Z,16.90
2016-09-13T00:07:28.929Z,16.92
2016-09-13T00:08:16.992Z,16.89
2016-09-13T00:09:23.120Z,16.84
2016-09-13T00:10:25.594Z,16.89
2016-09-13T00:11:25.062Z,16.89
2016-09-13T00:12:26.558Z,16.84
2016-09-13T00:13:27.897Z,16.88
2016-09-13T00:14:26.358Z,16.85
2016-09-13T00:15:23.476Z,16.86
2016-09-13T00:16:22.675Z,16.85
2016-09-13T00:17:22.693Z,16.80
2016-09-13T00:18:26.068Z,16.81
2016-09-13T00:19:26.078Z,16.79
2016-09-13T00:20:25.098Z,16.81
2016-09-13T00:21:22.741Z,16.84
2016-09-13T00:22:27.998Z,16.77
2016-09-13T00:24:28.767Z,16.80
2016-09-13T00:25:26.122Z,16.80
2016-09-13T00:26:25.612Z,16.77
2016-09-13T00:27:25.569Z,16.76
2016-09-13T00:28:29.021Z,16.74
2016-09-13T00:29:25.406Z,16.80
2016-09-13T00:30:17.622Z,16.86
2016-09-13T00:31:25.040Z,16.80
2016-09-13T00:33:12.253Z,16.82
2016-09-13T00:34:23.300Z,16.70
2016-09-13T00:35:25.739Z,16.72
2016-09-13T00:36:25.121Z,16.72
2016-09-13T00:37:29.029Z,16.78
2016-09-13T00:38:25.377Z,16.77
2016-09-13T00:39:28.667Z,16.71
2016-09-13T00:40:16.793Z,16.68
2016-09-13T00:41:22.991Z,16.70
2016-09-13T00:42:17.153Z,16.73
2016-09-13T00:43:25.713Z,16.74
2016-09-13T00:44:23.142Z,16.73
2016-09-13T00:45:26.424Z,16.71
2016-09-13T00:46:15.513Z,16.73
2016-09-13T00:47:25.893Z,16.69
2016-09-13T00:49:22.584Z,16.68
2016-09-13T00:50:24.945Z,16.66
2016-09-13T00:51:16.968Z,16.68
2016-09-13T00:52:25.369Z,16.66
2016-09-13T00:54:41.149Z,16.65
2016-09-13T00:55:26.126Z,16.59
2016-09-13T00:56:17.182Z,16.65
2016-09-13T00:57:19.810Z,16.66
2016-09-13T00:58:17.486Z,16.69
2016-09-13T00:59:25.005Z,16.64
2016-09-13T01:00:22.661Z,16.58
2016-09-13T01:01:16.824Z,16.62
2016-09-13T01:02:13.081Z,16.64
2016-09-13T01:03:17.218Z,16.60
2016-09-13T01:04:23.753Z,16.57
2016-09-13T01:05:25.552Z,16.66
2016-09-13T01:06:27.953Z,16.60
2016-09-13T01:07:28.455Z,16.60
2016-09-13T01:08:26.757Z,16.60
2016-09-13T01:09:16.839Z,16.65
2016-09-13T01:10:23.464Z,16.64
2016-09-13T01:11:29.101Z,16.61
2016-09-13T01:12:19.611Z,16.62
2016-09-13T01:13:25.835Z,16.66
2016-09-13T01:14:13.001Z,16.64
2016-09-13T01:15:19.547Z,16.67
2016-09-13T01:17:28.670Z,16.50
2016-09-13T01:18:14.827Z,16.39
2016-09-13T01:19:22.098Z,16.39
2016-09-13T01:20:13.250Z,16.31
2016-09-13T01:21:16.845Z,16.30
2016-09-13T01:22:23.041Z,16.26
2016-09-13T01:23:17.152Z,16.32
2016-09-13T01:24:19.799Z,16.37
2016-09-13T01:26:13.004Z,16.47
2016-09-13T01:27:22.670Z,16.49
2016-09-13T01:28:16.768Z,16.46
2016-09-13T01:29:26.161Z,16.49
2016-09-13T01:30:25.476Z,16.51
2016-09-13T01:31:23.883Z,16.44
2016-09-13T01:33:16.564Z,16.49
2016-09-13T01:35:26.193Z,16.43
2016-09-13T01:36:29.509Z,16.47
2016-09-13T01:37:28.879Z,16.41
2016-09-13T01:38:26.234Z,16.40
2016-09-13T01:39:17.084Z,16.33
2016-09-13T01:42:28.416Z,16.35
2016-09-13T01:43:23.735Z,16.36
2016-09-13T01:44:25.208Z,16.33
2016-09-13T01:45:17.325Z,16.27
2016-09-13T01:46:17.944Z,16.27
2016-09-13T01:47:16.947Z,16.24
2016-09-13T01:48:11.965Z,16.26
2016-09-13T01:49:23.290Z,16.28
2016-09-13T01:50:16.957Z,16.22
2016-09-13T01:51:23.267Z,16.13
2016-09-13T01:52:23.490Z,16.18
2016-09-13T01:53:23.822Z,16.12
2016-09-13T01:54:22.482Z,16.16
2016-09-13T01:55:24.841Z,16.10
2016-09-13T01:56:25.209Z,16.13
2016-09-13T01:57:17.301Z,16.14
2016-09-13T01:58:26.790Z,16.09
2016-09-13T01:59:17.242Z,16.14
2016-09-13T02:00:19.074Z,16.09
2016-09-13T02:01:19.416Z,16.13
2016-09-13T02:02:23.422Z,16.11
2016-09-13T02:03:25.697Z,16.17
2016-09-13T02:04:17.001Z,16.20
2016-09-13T02:05:17.143Z,16.17
2016-09-13T02:06:23.338Z,16.16
2016-09-13T02:07:17.414Z,16.17
2016-09-13T02:08:27.097Z,16.16
2016-09-13T02:09:17.170Z,16.15
2016-09-13T02:10:23.464Z,16.14
2016-09-13T02:11:13.755Z,16.14
2016-09-13T02:12:12.933Z,16.12
2016-09-13T02:13:25.245Z,16.17
2016-09-13T02:14:13.157Z,16.12
2016-09-13T02:15:28.553Z,16.16
2016-09-13T02:16:24.888Z,16.11
2016-09-13T02:17:26.235Z,16.12
2016-09-13T02:18:23.663Z,16.12
2016-09-13T02:19:16.751Z,16.07
2016-09-13T02:20:13.275Z,16.14
2016-09-13T02:21:17.285Z,16.05
2016-09-13T02:22:17.443Z,16.07
2016-09-13T02:23:25.876Z,16.13
2016-09-13T02:24:19.465Z,16.05
2016-09-13T02:25:16.575Z,16.07
2016-09-13T02:27:19.851Z,16.05
2016-09-13T02:28:19.982Z,16.06
2016-09-13T02:29:25.428Z,16.05
2016-09-13T02:30:26.843Z,16.05
2016-09-13T02:31:28.534Z,15.97
2016-09-13T02:32:22.871Z,15.94
2016-09-13T02:33:11.711Z,15.93
2016-09-13T02:35:16.762Z,15.91
2016-09-13T02:36:25.681Z,15.90
2016-09-13T02:38:38.861Z,15.90
2016-09-13T02:39:25.710Z,15.83
2016-09-13T02:40:16.913Z,15.90
2016-09-13T02:41:23.138Z,15.95
2016-09-13T02:42:25.062Z,15.93
2016-09-13T02:44:26.069Z,15.97
2016-09-13T02:45:25.392Z,15.99
2016-09-13T02:49:48.803Z,16.03
2016-09-13T02:52:12.666Z,16.01
2016-09-13T02:53:20.406Z,15.97
2016-09-13T02:54:25.704Z,16.04
2016-09-13T02:55:29.028Z,16.01
2016-09-13T02:56:17.225Z,15.93
2016-09-13T02:58:26.495Z,15.93
2016-09-13T02:59:25.587Z,15.90
2016-09-13T03:01:17.252Z,15.89
2016-09-13T03:02:17.882Z,15.91
2016-09-13T03:03:26.286Z,15.90
2016-09-13T03:04:25.375Z,15.90
2016-09-13T03:05:23.495Z,15.89
2016-09-13T03:06:22.557Z,15.88
2016-09-13T03:07:22.922Z,15.92
2016-09-13T03:08:28.739Z,15.88
2016-09-13T03:09:22.707Z,15.87
2016-09-13T03:10:26.671Z,15.90
2016-09-13T03:11:25.022Z,15.90
2016-09-13T03:12:23.265Z,15.90
2016-09-13T03:13:26.416Z,15.93
2016-09-13T03:14:23.493Z,15.90
2016-09-13T03:15:19.089Z,15.83
2016-09-13T03:16:17.053Z,15.91
2016-09-13T03:17:16.911Z,15.86
2016-09-13T03:18:12.034Z,15.82
2016-09-13T03:19:22.479Z,15.68
2016-09-13T03:20:19.242Z,15.71
2016-09-13T03:21:17.755Z,15.76
2016-09-13T03:22:28.611Z,15.70
2016-09-13T03:23:27.766Z,15.73
2016-09-13T03:24:16.923Z,15.75
2016-09-13T03:25:27.245Z,15.76
2016-09-13T03:26:19.725Z,15.78
2016-09-13T03:27:16.754Z,15.67
2016-09-13T03:28:16.843Z,15.72
2016-09-13T03:29:22.983Z,15.72
2016-09-13T03:30:25.398Z,15.76
2016-09-13T03:31:17.367Z,15.73
2016-09-13T03:32:25.790Z,15.78
2016-09-13T03:33:22.677Z,15.77
2016-09-13T03:34:23.661Z,15.67
2016-09-13T03:36:25.742Z,15.68
2016-09-13T03:37:26.089Z,15.64
2016-09-13T03:38:12.671Z,15.65
2016-09-13T03:39:31.985Z,15.64
2016-09-13T03:40:22.904Z,15.66
2016-09-13T03:41:25.138Z,15.63
2016-09-13T03:42:12.369Z,15.62
2016-09-13T03:43:25.769Z,15.58
2016-09-13T03:44:24.939Z,15.58
2016-09-13T03:45:19.373Z,15.61
2016-09-13T03:46:17.466Z,15.62
2016-09-13T03:47:25.881Z,15.60
2016-09-13T03:48:12.751Z,15.59
2016-09-13T03:49:16.852Z,15.64
2016-09-13T03:50:17.052Z,15.59
2016-09-13T03:51:19.811Z,15.60
2016-09-13T03:52:25.665Z,15.63
2016-09-13T03:53:26.491Z,15.66
2016-09-13T03:54:29.246Z,15.64
2016-09-13T03:55:28.506Z,15.70
2016-09-13T03:57:25.465Z,15.63
2016-09-13T03:58:26.453Z,15.60
2016-09-13T04:00:16.899Z,15.59
2016-09-13T04:01:25.419Z,15.60
2016-09-13T04:02:25.683Z,15.56
2016-09-13T04:03:27.797Z,15.46
2016-09-13T04:04:25.155Z,15.49
2016-09-13T04:05:26.490Z,15.52
2016-09-13T04:06:24.792Z,15.55
2016-09-13T04:07:28.099Z,15.55
2016-09-13T04:08:25.483Z,15.53
2016-09-13T04:09:25.462Z,15.49
2016-09-13T04:10:25.508Z,15.52
2016-09-13T04:11:25.823Z,15.51
2016-09-13T04:12:25.821Z,15.45
2016-09-13T04:13:28.209Z,15.39
2016-09-13T04:14:26.584Z,15.39
2016-09-13T04:15:23.184Z,15.42
2016-09-13T04:16:25.510Z,15.46
2016-09-13T04:17:22.982Z,15.46
2016-09-13T04:18:25.868Z,15.42
2016-09-13T04:19:22.426Z,15.36
2016-09-13T04:20:23.207Z,15.31
2016-09-13T04:21:29.544Z,15.36
2016-09-13T04:22:25.369Z,15.42
2016-09-13T04:23:28.160Z,15.40
2016-09-13T04:24:23.316Z,15.36
2016-09-13T04:25:28.596Z,15.38
2016-09-13T04:26:25.713Z,15.41
2016-09-13T04:29:28.666Z,15.45
2016-09-13T04:30:25.894Z,15.41
2016-09-13T04:31:13.170Z,15.42
2016-09-13T04:32:28.406Z,15.41
2016-09-13T04:33:23.014Z,15.41
2016-09-13T04:34:17.498Z,15.40
2016-09-13T04:35:27.883Z,15.35
2016-09-13T04:36:28.258Z,15.30
2016-09-13T04:37:13.408Z,15.30
2016-09-13T04:38:19.971Z,15.29
2016-09-13T04:39:28.663Z,15.30
2016-09-13T04:40:24.888Z,15.31
2016-09-13T04:42:18.593Z,15.35
2016-09-13T04:43:25.884Z,15.38
2016-09-13T04:44:26.823Z,15.36
2016-09-13T04:45:23.359Z,15.30
2016-09-13T04:47:25.430Z,15.28
2016-09-13T04:48:19.972Z,15.33
2016-09-13T04:49:29.054Z,15.31
2016-09-13T04:50:25.467Z,15.35
2016-09-13T04:51:13.365Z,15.40
2016-09-13T04:52:19.913Z,15.40
2016-09-13T04:53:22.941Z,15.40
2016-09-13T04:54:11.856Z,15.28
2016-09-13T04:55:23.180Z,15.28
2016-09-13T04:56:19.569Z,15.31
2016-09-13T04:57:25.906Z,15.29
2016-09-13T04:58:23.604Z,15.34
2016-09-13T04:59:17.052Z,15.30
2016-09-13T05:00:12.470Z,15.30
2016-09-13T05:01:25.318Z,15.38
2016-09-13T05:02:26.557Z,15.43
2016-09-13T05:03:17.035Z,15.39
2016-09-13T05:04:28.489Z,15.43
2016-09-13T05:06:23.132Z,15.44
2016-09-13T05:07:28.472Z,15.47
2016-09-13T05:08:22.314Z,15.47
2016-09-13T05:10:11.842Z,15.47
2016-09-13T05:11:25.204Z,15.42
2016-09-13T05:12:28.939Z,15.47
2016-09-13T05:13:23.171Z,15.43
2016-09-13T05:16:24.907Z,15.45
2016-09-13T05:17:17.257Z,15.45
2016-09-13T05:19:22.993Z,15.55
2016-09-13T05:20:13.107Z,15.51
2016-09-13T05:21:25.305Z,15.52
2016-09-13T05:22:26.574Z,15.53
2016-09-13T05:23:17.071Z,15.54
2016-09-13T05:25:11.920Z,15.53
2016-09-13T05:26:16.974Z,15.55
2016-09-13T05:27:22.734Z,15.64
2016-09-13T05:28:13.255Z,15.64
2016-09-13T05:29:17.307Z,15.69
2016-09-13T05:30:25.811Z,15.64
2016-09-13T05:31:28.656Z,15.71
2016-09-13T05:32:17.253Z,15.71
2016-09-13T05:34:23.003Z,15.66
2016-09-13T05:35:17.174Z,15.66
2016-09-13T05:36:11.837Z,15.70
2016-09-13T05:37:12.493Z,15.71
2016-09-13T05:38:27.866Z,15.71
2016-09-13T05:39:12.427Z,15.68
2016-09-13T05:40:26.251Z,15.72
2016-09-13T05:42:13.386Z,15.69
2016-09-13T05:43:13.096Z,15.72
2016-09-13T05:44:26.299Z,15.77
2016-09-13T05:45:26.242Z,15.84
2016-09-13T05:46:17.092Z,15.88
2016-09-13T05:47:23.290Z,15.87
2016-09-13T05:48:24.954Z,15.91
2016-09-13T05:49:17.040Z,15.92
2016-09-13T05:50:19.544Z,15.92
2016-09-13T05:51:24.868Z,15.92
2016-09-13T05:52:28.654Z,15.94
2016-09-13T05:54:12.905Z,15.98
2016-09-13T05:55:17.013Z,16.03
2016-09-13T05:56:23.380Z,16.03
2016-09-13T05:57:25.695Z,16.05
2016-09-13T05:58:24.903Z,16.04
2016-09-13T05:59:12.291Z,16.06
2016-09-13T06:00:25.656Z,16.11
2016-09-13T06:01:16.750Z,16.16
2016-09-13T06:02:17.032Z,16.16
2016-09-13T06:03:19.242Z,16.18
2016-09-13T06:04:13.379Z,16.19
2016-09-13T06:05:11.391Z,16.20
2016-09-13T06:06:12.112Z,16.21
2016-09-13T06:07:17.355Z,16.23
2016-09-13T06:08:25.907Z,16.24
2016-09-13T06:09:25.311Z,16.25
2016-09-13T06:10:12.744Z,16.25
2016-09-13T06:11:26.144Z,16.27
2016-09-13T06:12:17.352Z,16.32
2016-09-13T06:13:17.432Z,16.35
2016-09-13T06:14:22.898Z,16.33
2016-09-13T06:15:17.032Z,16.39
2016-09-13T06:16:17.320Z,16.43
2016-09-13T06:17:25.731Z,16.42
2016-09-13T06:18:26.018Z,16.41
2016-09-13T06:19:26.642Z,16.43
2016-09-13T06:20:47.003Z,16.45
2016-09-13T06:23:17.372Z,16.55
2016-09-13T06:24:24.726Z,16.55
2016-09-13T06:25:26.045Z,16.56
2016-09-13T06:26:25.695Z,16.56
2016-09-13T06:27:26.005Z,16.59
2016-09-13T06:28:28.069Z,16.61
2016-09-13T06:29:22.755Z,16.61
2016-09-13T06:30:23.015Z,16.67
2016-09-13T06:31:12.844Z,16.69
2016-09-13T06:32:17.074Z,16.77
2016-09-13T06:33:23.621Z,16.84
2016-09-13T06:34:26.365Z,16.84
2016-09-13T06:35:26.346Z,16.84
2016-09-13T06:36:25.666Z,16.91
2016-09-13T06:37:22.705Z,16.95
2016-09-13T06:38:28.034Z,17.00
2016-09-13T06:39:26.366Z,16.99
2016-09-13T06:40:26.333Z,16.99
2016-09-13T06:41:12.805Z,17.00
2016-09-13T06:42:17.017Z,17.01
2016-09-13T06:44:28.521Z,17.04
2016-09-13T06:45:25.720Z,17.06
2016-09-13T06:46:19.677Z,17.13
2016-09-13T06:47:22.718Z,17.13
2016-09-13T06:48:26.052Z,17.16
2016-09-13T06:49:28.788Z,17.22
2016-09-13T06:50:26.064Z,17.28
2016-09-13T06:52:25.014Z,17.41
2016-09-13T06:53:26.393Z,17.46
2016-09-13T06:55:26.383Z,17.60
2016-09-13T06:56:23.439Z,17.60
2016-09-13T06:57:12.303Z,17.60
2016-09-13T06:58:25.684Z,17.61
2016-09-13T07:00:23.352Z,17.65
2016-09-13T07:01:26.728Z,17.72
2016-09-13T07:02:12.297Z,17.78
2016-09-13T07:03:23.751Z,17.83
2016-09-13T07:04:22.833Z,17.85
2016-09-13T07:06:28.103Z,17.96
2016-09-13T07:07:12.442Z,17.99
2016-09-13T07:08:28.076Z,18.00
2016-09-13T07:09:19.404Z,18.06
2016-09-13T07:10:23.126Z,18.09
2016-09-13T07:11:25.579Z,18.15
2016-09-13T07:13:25.583Z,18.23
2016-09-13T07:14:25.992Z,18.25
2016-09-13T07:15:26.363Z,18.25
2016-09-13T07:16:12.876Z,18.25
2016-09-13T07:17:17.051Z,18.27
2016-09-13T07:18:25.408Z,18.33
2016-09-13T07:19:13.288Z,18.33
2016-09-13T07:20:54.764Z,18.37
2016-09-13T07:21:25.394Z,18.42
2016-09-13T07:22:17.122Z,18.48
2016-09-13T07:23:11.922Z,18.51
2016-09-13T07:24:19.395Z,18.56
2016-09-13T07:25:17.431Z,18.63
2016-09-13T07:26:25.365Z,18.66
2016-09-13T07:27:24.777Z,18.69
2016-09-13T07:28:23.333Z,18.73
2016-09-13T07:29:26.774Z,18.76
2016-09-13T07:30:22.937Z,18.78
2016-09-13T07:31:12.258Z,18.82
2016-09-13T07:32:17.056Z,18.85
2016-09-13T07:33:17.142Z,18.88
2016-09-13T07:34:22.675Z,18.93
2016-09-13T07:35:23.171Z,18.97
2016-09-13T07:36:23.546Z,19.02
2016-09-13T07:37:28.647Z,19.10
2016-09-13T07:38:12.813Z,19.15
2016-09-13T07:39:13.003Z,19.20
2016-09-13T07:40:28.356Z,19.21
2016-09-13T07:41:17.752Z,19.26
2016-09-13T07:42:19.925Z,19.29
2016-09-13T07:43:13.242Z,19.33
2016-09-13T07:44:12.176Z,19.36
2016-09-13T07:45:27.803Z,19.44
2016-09-13T07:46:17.403Z,19.49
2016-09-13T07:47:16.508Z,19.58
2016-09-13T07:48:16.481Z,19.62
2016-09-13T07:49:22.768Z,19.66
2016-09-13T07:50:16.872Z,19.69
2016-09-13T07:51:16.583Z,19.70
2016-09-13T07:52:28.662Z,19.71
2016-09-13T07:55:15.906Z,19.79
2016-09-13T07:55:21.019Z,19.79
2016-09-13T07:56:18.067Z,19.81
2016-09-13T07:57:12.628Z,19.82
2016-09-13T07:58:13.411Z,19.85
2016-09-13T07:59:12.662Z,19.86
2016-09-13T08:00:12.788Z,19.86
2016-09-13T08:01:17.918Z,19.90
2016-09-13T08:02:13.044Z,19.98
2016-09-13T08:03:16.259Z,20.01
2016-09-13T08:04:17.749Z,20.07
2016-09-13T08:05:13.032Z,20.11
2016-09-13T08:06:23.231Z,20.17
2016-09-13T08:07:17.408Z,20.18
2016-09-13T08:08:22.323Z,20.17
2016-09-13T08:09:17.639Z,20.20
2016-09-13T08:10:20.828Z,20.25
2016-09-13T08:11:21.022Z,20.28
2016-09-13T08:12:17.109Z,20.33
2016-09-13T08:13:12.186Z,20.34
2016-09-13T08:14:17.865Z,20.34
2016-09-13T08:15:13.523Z,20.35
2016-09-13T08:16:21.881Z,20.37
2016-09-13T08:17:12.128Z,20.38
2016-09-13T08:18:12.270Z,20.40
2016-09-13T08:19:20.526Z,20.42
2016-09-13T08:20:12.695Z,20.46
2016-09-13T08:21:17.226Z,20.47
2016-09-13T08:22:12.694Z,20.46
2016-09-13T08:23:19.851Z,20.47
2016-09-13T08:24:20.100Z,20.51
2016-09-13T08:25:20.257Z,20.52
2016-09-13T08:26:22.726Z,20.54
2016-09-13T08:27:22.060Z,20.55
2016-09-13T08:28:22.352Z,20.59
2016-09-13T08:29:16.792Z,20.64
2016-09-13T08:30:19.911Z,20.68
2016-09-13T08:31:20.481Z,20.69
2016-09-13T08:32:11.960Z,20.68
2016-09-13T08:33:22.244Z,20.67
2016-09-13T08:34:20.424Z,20.69
2016-09-13T08:36:20.304Z,20.76
2016-09-13T08:38:12.842Z,20.79
2016-09-13T08:39:19.967Z,20.82
2016-09-13T08:41:11.988Z,20.86
2016-09-13T08:42:19.894Z,20.93
2016-09-13T08:43:20.068Z,20.97
2016-09-13T08:44:26.178Z,21.01
2016-09-13T08:45:22.458Z,21.04
2016-09-13T08:46:20.162Z,21.04
2016-09-13T08:48:23.058Z,21.09
2016-09-13T08:49:22.326Z,21.10
2016-09-13T08:50:20.484Z,21.11
2016-09-13T08:51:19.693Z,21.11
2016-09-13T08:52:19.892Z,21.13
2016-09-13T08:53:17.017Z,21.11
2016-09-13T08:54:13.625Z,21.16
2016-09-13T08:55:19.860Z,21.28
2016-09-13T08:56:22.231Z,21.32
2016-09-13T08:57:13.255Z,21.38
2016-09-13T08:58:31.863Z,21.36
2016-09-13T08:59:22.240Z,21.38
2016-09-13T09:00:22.797Z,21.38
2016-09-13T09:02:20.130Z,21.40
2016-09-13T09:03:20.351Z,21.40
2016-09-13T09:04:11.621Z,21.48
2016-09-13T09:05:20.356Z,21.51
2016-09-13T09:07:17.319Z,21.58
2016-09-13T09:08:20.520Z,21.59
2016-09-13T09:09:19.817Z,21.61
2016-09-13T09:10:20.060Z,21.59
2016-09-13T09:11:17.163Z,21.58
2016-09-13T09:12:13.193Z,21.58
2016-09-13T09:13:17.057Z,21.66
2016-09-13T09:14:19.791Z,21.64
2016-09-13T09:16:16.826Z,21.67
2016-09-13T09:17:20.140Z,21.77
2016-09-13T09:18:20.421Z,21.76
2016-09-13T09:19:19.626Z,21.78
2016-09-13T09:23:19.865Z,21.91
2016-09-13T09:24:28.254Z,21.90
2016-09-13T09:25:20.406Z,21.92
2016-09-13T09:26:32.574Z,21.93
2016-09-13T09:28:12.036Z,22.00
2016-09-13T09:33:11.893Z,22.09
2016-09-13T09:34:23.311Z,22.03
2016-09-13T09:35:17.351Z,22.04
2016-09-13T09:36:17.667Z,22.08
2016-09-13T09:37:22.342Z,22.09
2016-09-13T09:38:17.394Z,22.16
2016-09-13T09:39:20.635Z,22.15
2016-09-13T09:40:20.816Z,22.18
2016-09-13T09:42:17.121Z,22.18
2016-09-13T09:43:19.691Z,22.15
2016-09-13T09:45:19.641Z,22.21
2016-09-13T09:46:19.814Z,22.20
2016-09-13T09:47:17.184Z,22.22
2016-09-13T09:48:19.635Z,22.24
2016-09-13T09:49:20.437Z,22.26
2016-09-13T09:50:11.419Z,22.28
2016-09-13T09:53:22.595Z,22.40
2016-09-13T09:54:19.739Z,22.48
2016-09-13T09:55:19.990Z,22.56
2016-09-13T09:56:20.320Z,22.59
2016-09-13T09:58:20.275Z,22.61
2016-09-13T10:00:20.224Z,22.70
2016-09-13T10:01:20.443Z,22.75
2016-09-13T10:05:19.622Z,22.70
2016-09-13T10:06:19.847Z,22.68
2016-09-13T10:08:19.772Z,22.78
2016-09-13T10:09:13.447Z,22.82
2016-09-13T10:10:20.589Z,22.87
2016-09-13T10:11:22.758Z,22.93
2016-09-13T10:15:19.868Z,23.14
2016-09-13T10:16:20.062Z,23.12
2016-09-13T10:17:23.319Z,23.12
2016-09-13T10:18:17.470Z,23.14
2016-09-13T10:19:13.646Z,23.10
2016-09-13T10:21:12.621Z,23.20
2016-09-13T10:23:11.890Z,23.26
2016-09-13T10:24:13.854Z,23.39
2016-09-13T10:25:12.954Z,23.42
2016-09-13T10:26:22.780Z,23.44
2016-09-13T10:27:12.296Z,23.51
2016-09-13T10:30:22.734Z,23.58
2016-09-13T10:31:11.943Z,23.56
2016-09-13T10:33:22.137Z,23.56
2016-09-13T10:34:12.907Z,23.62
2016-09-13T10:36:11.936Z,23.56
2016-09-13T10:37:20.092Z,23.59
2016-09-13T10:38:12.632Z,23.59
2016-09-13T10:39:20.069Z,23.66
2016-09-13T10:41:20.323Z,23.77
2016-09-13T10:42:20.536Z,23.73
2016-09-13T10:44:12.674Z,23.71
2016-09-13T10:45:11.664Z,23.73
2016-09-13T10:46:16.635Z,23.82
2016-09-13T10:47:11.844Z,23.83
2016-09-13T10:48:18.172Z,23.75
2016-09-13T10:49:19.691Z,23.74
2016-09-13T10:50:12.680Z,23.78
2016-09-13T10:51:22.494Z,23.77
2016-09-13T10:52:12.295Z,23.81
2016-09-13T10:53:24.450Z,23.79
2016-09-13T10:54:13.230Z,23.86
2016-09-13T10:55:12.417Z,23.84
2016-09-13T10:56:23.469Z,23.87
2016-09-13T10:57:19.495Z,23.90
2016-09-13T10:58:22.395Z,23.90
2016-09-13T10:59:20.529Z,23.93
2016-09-13T11:00:19.778Z,23.91
2016-09-13T11:01:11.545Z,23.91
2016-09-13T11:06:27.345Z,24.06
2016-09-13T11:07:17.450Z,24.04
2016-09-13T11:08:21.810Z,24.05
2016-09-13T11:09:14.032Z,24.10
2016-09-13T11:11:21.942Z,24.07
2016-09-13T11:12:22.656Z,24.11
2016-09-13T11:13:22.243Z,24.13
2016-09-13T11:14:20.379Z,24.17
2016-09-13T11:15:19.680Z,24.23
2016-09-13T11:16:22.050Z,24.21
2016-09-13T11:17:19.648Z,24.29
2016-09-13T11:18:19.799Z,24.31
2016-09-13T11:19:12.066Z,24.31
2016-09-13T11:20:22.436Z,24.36
2016-09-13T11:21:20.104Z,24.39
2016-09-13T11:22:20.285Z,24.49
2016-09-13T11:23:20.480Z,24.54
2016-09-13T11:24:19.826Z,24.55
2016-09-13T11:25:22.641Z,24.46
2016-09-13T11:26:13.217Z,24.37
2016-09-13T11:28:22.116Z,24.36
2016-09-13T11:29:20.228Z,24.45
2016-09-13T11:30:20.419Z,24.44
2016-09-13T11:31:21.848Z,24.49
2016-09-13T11:32:12.735Z,24.44
2016-09-13T11:33:12.139Z,24.44
2016-09-13T11:34:20.252Z,24.43
2016-09-13T11:35:20.472Z,24.42
2016-09-13T11:36:12.741Z,24.43
2016-09-13T11:37:16.773Z,24.45
2016-09-13T11:38:17.669Z,24.47
2016-09-13T11:39:14.319Z,24.46
2016-09-13T11:40:21.488Z,24.52
2016-09-13T11:41:19.705Z,24.47
2016-09-13T11:42:22.100Z,24.54
2016-09-13T11:43:12.757Z,24.54
2016-09-13T11:44:19.872Z,24.59
2016-09-13T11:45:12.892Z,24.60
2016-09-13T11:46:17.569Z,24.71
2016-09-13T11:47:16.780Z,24.73
2016-09-13T11:49:12.618Z,24.89
2016-09-13T11:50:19.752Z,24.86
2016-09-13T11:51:12.609Z,24.91
2016-09-13T11:53:20.359Z,24.85
2016-09-13T11:54:17.552Z,24.81
2016-09-13T11:56:22.977Z,24.79
2016-09-13T11:57:20.122Z,24.83
2016-09-13T11:58:20.333Z,24.85
2016-09-13T11:59:17.644Z,24.93
2016-09-13T12:00:17.862Z,25.08
2016-09-13T12:01:22.142Z,24.99
2016-09-13T12:03:16.833Z,24.97
2016-09-13T12:04:19.991Z,24.93
2016-09-13T12:05:20.266Z,24.98
2016-09-13T12:06:12.577Z,25.06
2016-09-13T12:07:19.994Z,25.02
2016-09-13T12:08:20.275Z,24.99
2016-09-13T12:10:22.364Z,25.07
2016-09-13T12:11:12.074Z,25.10
2016-09-13T12:12:20.183Z,25.15
2016-09-13T12:13:20.469Z,25.25
2016-09-13T12:14:20.797Z,25.22
2016-09-13T12:16:38.895Z,25.19
2016-09-13T12:17:19.830Z,25.19
2016-09-13T12:18:13.048Z,25.24
2016-09-13T12:20:19.796Z,25.33
2016-09-13T12:21:22.607Z,25.43
2016-09-13T12:22:12.219Z,25.38
2016-09-13T12:23:23.026Z,25.42
2016-09-13T12:24:12.772Z,25.33
2016-09-13T12:25:13.455Z,25.22
2016-09-13T12:27:11.543Z,25.12
2016-09-13T12:28:13.319Z,25.08
2016-09-13T12:29:22.568Z,25.00
2016-09-13T12:30:12.814Z,25.00
2016-09-13T12:31:11.771Z,24.94
2016-09-13T12:32:12.879Z,24.88
2016-09-13T12:34:13.055Z,24.88
2016-09-13T12:35:18.539Z,24.88
2016-09-13T12:36:22.162Z,24.93
2016-09-13T12:37:20.369Z,24.85
2016-09-13T12:38:12.436Z,24.89
2016-09-13T12:39:14.645Z,24.93
2016-09-13T12:40:25.861Z,24.93
2016-09-13T12:41:12.883Z,24.89
2016-09-13T12:42:12.760Z,25.01
2016-09-13T12:43:11.674Z,25.01
2016-09-13T12:44:11.460Z,25.12
2016-09-13T12:45:21.773Z,25.26
2016-09-13T12:46:11.666Z,25.40
2016-09-13T12:48:13.311Z,25.61
2016-09-13T12:49:23.219Z,25.68
2016-09-13T12:50:13.505Z,25.81
2016-09-13T12:52:12.675Z,25.80
2016-09-13T12:53:19.433Z,25.82
2016-09-13T12:54:12.014Z,25.88
2016-09-13T12:55:28.980Z,25.94
2016-09-13T12:56:12.409Z,25.99
2016-09-13T12:57:12.649Z,26.03
2016-09-13T12:58:12.199Z,26.11
2016-09-13T12:59:12.997Z,26.18
2016-09-13T13:00:12.556Z,26.32
2016-09-13T13:02:22.957Z,26.43
2016-09-13T13:03:12.643Z,26.48
2016-09-13T13:04:12.337Z,26.59
2016-09-13T13:05:18.158Z,26.63
2016-09-13T13:06:22.928Z,26.66
2016-09-13T13:07:13.080Z,26.73
2016-09-13T13:08:43.291Z,26.77
2016-09-13T13:09:11.960Z,26.83
2016-09-13T13:10:22.792Z,26.84
2016-09-13T13:11:13.065Z,26.91
2016-09-13T13:12:20.185Z,26.96
2016-09-13T13:13:20.457Z,26.97
2016-09-13T13:14:22.580Z,26.97
2016-09-13T13:15:22.196Z,26.97
2016-09-13T13:16:12.276Z,27.00
2016-09-13T13:17:11.999Z,27.04
2016-09-13T13:18:23.230Z,27.00
2016-09-13T13:19:12.736Z,26.98
2016-09-13T13:20:12.381Z,26.98
2016-09-13T13:21:13.129Z,26.97
2016-09-13T13:22:12.567Z,26.92
2016-09-13T13:23:19.636Z,26.82
2016-09-13T13:24:16.389Z,26.77
2016-09-13T13:25:20.513Z,26.66
2016-09-13T13:26:19.755Z,26.58
2016-09-13T13:27:12.175Z,26.50
2016-09-13T13:28:12.620Z,26.44
2016-09-13T13:29:11.977Z,26.35
2016-09-13T13:30:12.292Z,26.36
2016-09-13T13:31:12.306Z,26.30
2016-09-13T13:32:20.449Z,26.22
2016-09-13T13:33:21.822Z,26.19
2016-09-13T13:34:11.718Z,26.15
2016-09-13T13:35:13.927Z,26.19
2016-09-13T13:36:17.200Z,26.15
2016-09-13T13:37:12.113Z,26.10
2016-09-13T13:38:11.720Z,26.13
2016-09-13T13:39:19.651Z,26.08
2016-09-13T13:40:22.819Z,26.09
2016-09-13T13:41:20.212Z,25.99
2016-09-13T13:42:20.438Z,25.96
2016-09-13T13:43:12.253Z,25.94
2016-09-13T13:44:12.627Z,25.94
2016-09-13T13:45:17.144Z,25.93
2016-09-13T13:46:13.263Z,25.93
2016-09-13T13:47:12.164Z,25.98
2016-09-13T13:48:11.676Z,25.93
2016-09-13T13:50:13.050Z,25.96
2016-09-13T13:52:17.723Z,25.93
2016-09-13T13:53:22.032Z,25.85
2016-09-13T13:54:19.911Z,25.81
2016-09-13T13:55:12.371Z,25.84
2016-09-13T13:56:19.053Z,25.94
2016-09-13T13:57:12.950Z,25.91
2016-09-13T13:59:19.543Z,25.94
2016-09-13T14:00:19.740Z,25.95
2016-09-13T14:01:20.050Z,25.93
2016-09-13T14:02:12.806Z,25.94
2016-09-13T14:04:20.129Z,25.99
2016-09-13T14:05:13.061Z,26.00
2016-09-13T14:06:13.154Z,25.98
2016-09-13T14:10:12.704Z,25.98
2016-09-13T14:11:19.232Z,25.99
2016-09-13T14:12:13.217Z,25.96
2016-09-13T14:13:19.987Z,25.91
2016-09-13T14:14:12.981Z,25.95
2016-09-13T14:15:20.112Z,25.90
2016-09-13T14:16:13.609Z,25.97
2016-09-13T14:17:12.078Z,25.99
2016-09-13T14:18:22.382Z,25.96
2016-09-13T14:19:22.809Z,25.99
2016-09-13T14:20:21.032Z,25.94
2016-09-13T14:21:22.451Z,25.96
2016-09-13T14:22:19.651Z,25.93
2016-09-13T14:24:13.207Z,25.94
2016-09-13T14:25:19.610Z,25.94
2016-09-13T14:26:19.824Z,25.93
2016-09-13T14:27:17.679Z,25.93
2016-09-13T14:28:17.081Z,25.92
2016-09-13T14:29:12.244Z,25.97
2016-09-13T14:30:12.246Z,25.94
2016-09-13T14:31:20.401Z,25.96
2016-09-13T14:32:11.670Z,25.95
2016-09-13T14:33:22.024Z,25.94
2016-09-13T14:34:12.164Z,25.91
2016-09-13T14:35:12.679Z,25.96
2016-09-13T14:36:12.531Z,25.99
2016-09-13T14:37:11.636Z,26.02
2016-09-13T14:38:19.790Z,25.97
2016-09-13T14:39:15.384Z,26.01
2016-09-13T14:40:13.182Z,25.98